createdAt,value
2017-01-14T00:02:56.463Z,26.8
2017-01-14T00:03:55.924Z,26.8
2017-01-14T00:04:55.960Z,26.9
2017-01-14T00:05:55.957Z,26.9
2017-01-14T00:06:56.133Z,26.9
2017-01-14T00:07:54.919Z,26.9
2017-01-14T00:08:56.092Z,26.9
2017-01-14T00:09:55.186Z,26.9
2017-01-14T00:10:56.182Z,26.9
2017-01-14T00:11:56.371Z,26.9
2017-01-14T00:12:55.200Z,26.9
2017-01-14T00:13:55.339Z,26.9
2017-01-14T00:14:56.432Z,26.9
2017-01-14T00:15:56.369Z,26.9
2017-01-14T00:16:55.408Z,26.9
2017-01-14T00:17:55.405Z,26.9
2017-01-14T00:18:56.490Z,26.9
2017-01-14T00:19:56.481Z,26.9
2017-01-14T00:20:56.568Z,26.8
2017-01-14T00:21:56.727Z,26.9
2017-01-14T00:22:55.689Z,26.9
2017-01-14T00:23:55.647Z,26.9
2017-01-14T00:24:55.756Z,26.9
2017-01-14T00:25:55.746Z,26.9
2017-01-14T00:26:56.898Z,26.9
2017-01-14T00:27:56.918Z,26.8
2017-01-14T00:28:56.884Z,26.8
2017-01-14T00:29:55.895Z,26.8
2017-01-14T00:30:55.904Z,26.8
2017-01-14T00:31:55.941Z,26.8
2017-01-14T00:32:57.086Z,26.8
2017-01-14T00:33:56.188Z,26.8
2017-01-14T00:34:57.305Z,26.8
2017-01-14T00:35:56.296Z,26.8
2017-01-14T00:36:56.265Z,26.8
2017-01-14T00:37:57.388Z,26.8
2017-01-14T00:38:57.476Z,26.8
2017-01-14T00:39:57.442Z,26.8
2017-01-14T00:40:56.431Z,26.8
2017-01-14T00:41:56.433Z,26.8
2017-01-14T00:42:56.609Z,26.8
2017-01-14T00:43:57.746Z,26.8
2017-01-14T00:44:57.708Z,26.8
2017-01-14T00:45:56.807Z,26.8
2017-01-14T00:46:56.885Z,26.8
2017-01-14T00:47:57.427Z,26.8
2017-01-14T00:48:57.894Z,26.8
2017-01-14T00:49:59.099Z,26.8
2017-01-14T00:50:57.997Z,26.8
2017-01-14T00:51:58.808Z,26.8
2017-01-14T00:52:57.078Z,26.8
2017-01-14T00:53:58.270Z,26.8
2017-01-14T00:54:57.163Z,26.8
2017-01-14T00:55:57.250Z,26.8
2017-01-14T00:56:57.926Z,26.8
2017-01-14T00:57:57.396Z,26.8
2017-01-14T00:58:57.470Z,26.8
2017-01-14T00:59:58.576Z,26.8
2017-01-14T01:00:57.478Z,26.8
2017-01-14T01:01:58.554Z,26.8
2017-01-14T01:02:58.556Z,26.8
2017-01-14T01:03:58.764Z,26.8
2017-01-14T01:04:57.727Z,26.8
2017-01-14T01:05:58.746Z,26.9
2017-01-14T01:06:58.809Z,26.9
2017-01-14T01:07:57.818Z,26.8
2017-01-14T01:08:58.956Z,26.8
2017-01-14T01:09:59.018Z,26.8
2017-01-14T01:10:58.002Z,26.8
2017-01-14T01:11:57.943Z,26.8
2017-01-14T01:12:57.982Z,26.8
2017-01-14T01:13:59.102Z,26.8
2017-01-14T01:14:59.853Z,26.8
2017-01-14T01:15:58.175Z,26.8
2017-01-14T01:16:58.219Z,26.8
2017-01-14T01:17:59.277Z,26.8
2017-01-14T01:18:59.402Z,26.8
2017-01-14T01:19:58.288Z,26.8
2017-01-14T01:20:58.282Z,26.8
2017-01-14T01:21:59.509Z,26.8
2017-01-14T01:22:59.597Z,26.8
2017-01-14T01:23:59.687Z,26.8
2017-01-14T01:24:58.614Z,26.8
2017-01-14T01:25:58.629Z,26.8
2017-01-14T01:26:58.647Z,26.8
2017-01-14T01:27:59.713Z,26.8
2017-01-14T01:28:58.824Z,26.8
2017-01-14T01:29:58.856Z,26.8
2017-01-14T01:30:58.907Z,26.8
2017-01-14T01:32:00.064Z,26.8
2017-01-14T01:32:59.041Z,26.8
2017-01-14T01:33:59.023Z,26.8
2017-01-14T01:34:59.099Z,26.8
2017-01-14T01:35:59.106Z,26.8
2017-01-14T01:37:00.331Z,26.8
2017-01-14T01:37:59.221Z,26.8
2017-01-14T01:39:00.361Z,26.9
2017-01-14T01:40:00.423Z,26.9
2017-01-14T01:40:59.453Z,26.9
2017-01-14T01:41:59.585Z,26.9
2017-01-14T01:42:59.711Z,26.9
2017-01-14T01:44:00.653Z,26.9
2017-01-14T01:45:00.744Z,26.9
2017-01-14T01:45:59.708Z,26.9
2017-01-14T01:47:00.853Z,26.8
2017-01-14T01:48:00.853Z,26.8
2017-01-14T01:49:00.965Z,26.8
2017-01-14T01:49:59.949Z,26.9
2017-01-14T01:51:00.527Z,26.9
2017-01-14T01:52:00.065Z,26.9
2017-01-14T01:53:01.178Z,26.8
2017-01-14T01:54:00.289Z,26.9
2017-01-14T01:55:01.178Z,26.8
2017-01-14T01:56:01.256Z,26.8
2017-01-14T01:57:01.253Z,26.9
2017-01-14T01:58:01.372Z,26.9
2017-01-14T01:59:01.407Z,26.9
2017-01-14T02:00:01.457Z,26.9
2017-01-14T02:01:01.527Z,26.9
2017-01-14T02:02:01.571Z,26.9
2017-01-14T02:03:01.062Z,26.9
2017-01-14T02:04:00.508Z,26.9
2017-01-14T02:05:03.380Z,26.9
2017-01-14T02:06:00.575Z,26.8
2017-01-14T02:07:01.783Z,26.8
2017-01-14T02:08:00.644Z,26.8
2017-01-14T02:09:02.932Z,26.8
2017-01-14T02:10:01.778Z,26.8
2017-01-14T02:11:00.901Z,26.9
2017-01-14T02:12:01.087Z,26.9
2017-01-14T02:13:01.057Z,26.9
2017-01-14T02:14:02.106Z,26.8
2017-01-14T02:15:02.234Z,26.8
2017-01-14T02:16:01.174Z,26.8
2017-01-14T02:17:01.348Z,26.8
2017-01-14T02:18:03.057Z,26.9
2017-01-14T02:19:02.496Z,26.8
2017-01-14T02:20:02.224Z,26.8
2017-01-14T02:21:02.591Z,26.9
2017-01-14T02:22:01.482Z,26.9
2017-01-14T02:23:02.562Z,26.9
2017-01-14T02:24:02.734Z,26.9
2017-01-14T02:25:02.639Z,26.9
2017-01-14T02:26:01.631Z,26.9
2017-01-14T02:27:01.733Z,26.9
2017-01-14T02:28:02.849Z,26.9
2017-01-14T02:29:02.973Z,26.9
2017-01-14T02:30:03.024Z,26.9
2017-01-14T02:31:01.831Z,26.9
2017-01-14T02:32:02.022Z,26.9
2017-01-14T02:33:03.668Z,26.9
2017-01-14T02:34:02.128Z,26.9
2017-01-14T02:35:03.196Z,26.9
2017-01-14T02:36:03.383Z,26.9
2017-01-14T02:37:02.368Z,26.9
2017-01-14T02:38:02.397Z,26.9
2017-01-14T02:39:03.417Z,26.9
2017-01-14T02:40:03.968Z,26.9
2017-01-14T02:41:03.554Z,26.9
2017-01-14T02:42:03.547Z,26.9
2017-01-14T02:43:03.073Z,26.9
2017-01-14T02:44:03.630Z,26.9
2017-01-14T02:45:03.770Z,26.9
2017-01-14T02:46:03.658Z,26.9
2017-01-14T02:47:03.356Z,26.9
2017-01-14T02:48:04.575Z,26.9
2017-01-14T02:49:03.890Z,26.9
2017-01-14T02:50:02.916Z,26.9
2017-01-14T02:51:14.599Z,26.9
2017-01-14T02:52:05.321Z,26.9
2017-01-14T02:53:21.719Z,26.9
2017-01-14T02:54:03.106Z,26.9
2017-01-14T02:55:04.148Z,26.9
2017-01-14T02:56:03.251Z,26.9
2017-01-14T02:57:04.324Z,26.9
2017-01-14T02:58:04.303Z,26.9
2017-01-14T02:59:03.182Z,26.9
2017-01-14T03:00:03.272Z,26.9
2017-01-14T03:01:03.559Z,26.9
2017-01-14T03:02:03.408Z,26.9
2017-01-14T03:03:03.529Z,26.9
2017-01-14T03:04:04.601Z,26.9
2017-01-14T03:05:05.264Z,26.9
2017-01-14T03:06:03.646Z,26.9
2017-01-14T03:07:04.655Z,26.9
2017-01-14T03:08:04.655Z,26.9
2017-01-14T03:09:04.836Z,26.9
2017-01-14T03:10:03.707Z,26.9
2017-01-14T03:11:03.826Z,26.9
2017-01-14T03:12:03.844Z,26.9
2017-01-14T03:13:03.801Z,26.9
2017-01-14T03:14:05.459Z,26.9
2017-01-14T03:15:03.915Z,26.9
2017-01-14T03:16:05.058Z,26.9
2017-01-14T03:17:04.045Z,26.9
2017-01-14T03:18:04.048Z,26.9
2017-01-14T03:19:04.147Z,26.9
2017-01-14T03:20:04.116Z,26.9
2017-01-14T03:21:05.232Z,26.9
2017-01-14T03:22:05.318Z,26.9
2017-01-14T03:23:05.345Z,26.9
2017-01-14T03:24:05.289Z,26.9
2017-01-14T03:25:04.188Z,26.9
2017-01-14T03:26:04.305Z,26.9
2017-01-14T03:27:04.404Z,26.9
2017-01-14T03:28:05.414Z,26.9
2017-01-14T03:29:04.451Z,26.9
2017-01-14T03:30:05.302Z,26.9
2017-01-14T03:31:05.465Z,26.9
2017-01-14T03:32:04.487Z,26.9
2017-01-14T03:33:06.187Z,26.9
2017-01-14T03:34:05.576Z,26.9
2017-01-14T03:35:06.404Z,26.9
2017-01-14T03:36:04.737Z,26.9
2017-01-14T03:37:05.822Z,26.9
2017-01-14T03:38:04.756Z,26.9
2017-01-14T03:39:04.984Z,26.9
2017-01-14T03:40:04.959Z,26.9
2017-01-14T03:41:05.924Z,27
2017-01-14T03:42:06.047Z,26.9
2017-01-14T03:43:06.040Z,26.9
2017-01-14T03:44:05.133Z,27
2017-01-14T03:45:05.112Z,26.9
2017-01-14T03:46:06.209Z,26.9
2017-01-14T03:47:06.241Z,26.9
2017-01-14T03:48:05.345Z,26.9
2017-01-14T03:49:05.400Z,26.9
2017-01-14T03:50:05.380Z,26.9
2017-01-14T03:51:06.520Z,26.9
2017-01-14T03:52:06.672Z,26.9
2017-01-14T03:53:07.792Z,26.9
2017-01-14T03:54:06.736Z,26.9
2017-01-14T03:55:06.816Z,26.9
2017-01-14T03:56:06.911Z,26.9
2017-01-14T03:57:05.930Z,26.9
2017-01-14T03:58:07.018Z,26.9
2017-01-14T03:59:07.138Z,26.9
2017-01-14T04:00:06.133Z,26.9
2017-01-14T04:01:06.195Z,26.9
2017-01-14T04:02:06.071Z,26.9
2017-01-14T04:03:07.248Z,26.9
2017-01-14T04:04:07.315Z,26.9
2017-01-14T04:05:06.222Z,27
2017-01-14T04:06:07.282Z,26.9
2017-01-14T04:07:06.869Z,26.9
2017-01-14T04:08:07.430Z,26.9
2017-01-14T04:09:07.516Z,26.9
2017-01-14T04:10:06.486Z,26.9
2017-01-14T04:11:08.199Z,26.9
2017-01-14T04:12:06.625Z,26.9
2017-01-14T04:13:06.721Z,26.9
2017-01-14T04:14:06.679Z,26.9
2017-01-14T04:15:07.851Z,26.9
2017-01-14T04:16:07.780Z,26.9
2017-01-14T04:17:07.833Z,26.9
2017-01-14T04:18:07.332Z,26.9
2017-01-14T04:19:06.840Z,26.9
2017-01-14T04:20:07.998Z,26.9
2017-01-14T04:21:06.998Z,26.9
2017-01-14T04:22:08.186Z,26.9
2017-01-14T04:23:08.140Z,26.9
2017-01-14T04:24:08.241Z,26.9
2017-01-14T04:25:07.287Z,27
2017-01-14T04:26:07.367Z,27
2017-01-14T04:27:08.623Z,27
2017-01-14T04:28:08.423Z,27
2017-01-14T04:29:07.494Z,27
2017-01-14T04:30:07.465Z,26.9
2017-01-14T04:31:08.575Z,26.9
2017-01-14T04:32:07.697Z,26.9
2017-01-14T04:33:07.622Z,26.9
2017-01-14T04:34:08.791Z,26.9
2017-01-14T04:35:08.933Z,26.9
2017-01-14T04:36:08.964Z,26.9
2017-01-14T04:37:08.058Z,26.9
2017-01-14T04:38:07.994Z,27
2017-01-14T04:39:08.103Z,26.9
2017-01-14T04:40:09.082Z,26.9
2017-01-14T04:41:09.109Z,26.9
2017-01-14T04:42:09.234Z,26.9
2017-01-14T04:43:09.904Z,26.9
2017-01-14T04:44:08.123Z,26.9
2017-01-14T04:45:08.199Z,26.9
2017-01-14T04:46:09.360Z,26.9
2017-01-14T04:47:08.454Z,27
2017-01-14T04:48:09.730Z,27
2017-01-14T04:49:09.550Z,27
2017-01-14T04:50:10.293Z,27
2017-01-14T04:51:08.665Z,27
2017-01-14T04:52:09.784Z,26.9
2017-01-14T04:53:08.663Z,26.9
2017-01-14T04:54:09.834Z,26.9
2017-01-14T04:55:09.789Z,26.9
2017-01-14T04:56:08.770Z,26.9
2017-01-14T04:57:08.747Z,26.9
2017-01-14T04:58:08.946Z,26.9
2017-01-14T04:59:09.464Z,26.9
2017-01-14T05:00:10.056Z,26.9
2017-01-14T05:01:10.656Z,26.9
2017-01-14T05:02:12.235Z,26.9
2017-01-14T05:03:09.432Z,26.9
2017-01-14T05:04:10.358Z,26.9
2017-01-14T05:05:09.264Z,26.9
2017-01-14T05:06:09.399Z,26.9
2017-01-14T05:07:11.757Z,26.9
2017-01-14T05:08:09.508Z,26.9
2017-01-14T05:09:09.586Z,26.9
2017-01-14T05:10:09.608Z,27
2017-01-14T05:11:09.691Z,26.9
2017-01-14T05:12:10.371Z,26.9
2017-01-14T05:13:10.821Z,26.9
2017-01-14T05:14:09.823Z,26.9
2017-01-14T05:15:09.863Z,26.9
2017-01-14T05:16:10.876Z,26.9
2017-01-14T05:17:09.975Z,26.9
2017-01-14T05:18:10.689Z,26.9
2017-01-14T05:19:11.059Z,26.9
2017-01-14T05:20:12.629Z,26.9
2017-01-14T05:21:10.069Z,26.9
2017-01-14T05:22:10.143Z,26.9
2017-01-14T05:23:11.263Z,26.9
2017-01-14T05:24:11.918Z,26.9
2017-01-14T05:25:11.462Z,26.9
2017-01-14T05:26:10.264Z,26.9
2017-01-14T05:27:12.180Z,26.9
2017-01-14T05:28:10.487Z,26.9
2017-01-14T05:29:11.575Z,26.9
2017-01-14T05:30:10.439Z,26.9
2017-01-14T05:31:11.746Z,26.9
2017-01-14T05:32:10.648Z,26.9
2017-01-14T05:33:11.639Z,26.9
2017-01-14T05:34:11.740Z,26.9
2017-01-14T05:35:11.760Z,26.9
2017-01-14T05:36:12.516Z,26.9
2017-01-14T05:37:11.932Z,26.9
2017-01-14T05:38:11.968Z,26.9
2017-01-14T05:39:12.038Z,26.9
2017-01-14T05:40:12.040Z,26.9
2017-01-14T05:41:10.972Z,26.9
2017-01-14T05:42:11.035Z,26.9
2017-01-14T05:43:11.124Z,26.9
2017-01-14T05:44:12.288Z,26.9
2017-01-14T05:45:12.392Z,26.9
2017-01-14T05:46:11.277Z,26.9
2017-01-14T05:47:11.321Z,26.9
2017-01-14T05:48:13.106Z,26.9
2017-01-14T05:49:12.647Z,26.9
2017-01-14T05:50:12.779Z,26.9
2017-01-14T05:51:11.677Z,26.9
2017-01-14T05:52:12.854Z,26.9
2017-01-14T05:53:12.735Z,26.9
2017-01-14T05:54:12.821Z,26.9
2017-01-14T05:55:11.868Z,26.9
2017-01-14T05:56:12.980Z,26.9
2017-01-14T05:57:12.683Z,26.9
2017-01-14T05:58:12.533Z,26.9
2017-01-14T05:59:13.123Z,26.9
2017-01-14T06:00:12.231Z,26.9
2017-01-14T06:01:13.463Z,26.9
2017-01-14T06:02:13.259Z,26.9
2017-01-14T06:03:12.268Z,26.9
2017-01-14T06:04:13.478Z,26.9
2017-01-14T06:05:13.525Z,26.9
2017-01-14T06:06:12.994Z,26.9
2017-01-14T06:07:13.611Z,26.9
2017-01-14T06:08:14.271Z,26.9
2017-01-14T06:09:13.678Z,26.9
2017-01-14T06:10:12.702Z,26.9
2017-01-14T06:11:13.813Z,26.9
2017-01-14T06:12:12.801Z,26.9
2017-01-14T06:13:12.767Z,26.9
2017-01-14T06:14:13.928Z,26.9
2017-01-14T06:15:13.021Z,26.9
2017-01-14T06:16:14.126Z,26.9
2017-01-14T06:17:14.181Z,26.9
2017-01-14T06:18:13.084Z,26.9
2017-01-14T06:19:14.332Z,26.9
2017-01-14T06:20:14.422Z,26.9
2017-01-14T06:21:13.289Z,26.9
2017-01-14T06:22:14.468Z,26.9
2017-01-14T06:23:13.357Z,26.9
2017-01-14T06:24:14.576Z,26.9
2017-01-14T06:25:14.581Z,26.9
2017-01-14T06:26:13.441Z,26.9
2017-01-14T06:27:14.558Z,26.9
2017-01-14T06:28:13.635Z,26.9
2017-01-14T06:29:13.620Z,26.9
2017-01-14T06:30:14.780Z,26.9
2017-01-14T06:31:14.717Z,26.9
2017-01-14T06:32:14.789Z,26.9
2017-01-14T06:33:13.789Z,26.9
2017-01-14T06:34:13.981Z,26.9
2017-01-14T06:35:15.032Z,26.9
2017-01-14T06:36:14.042Z,26.9
2017-01-14T06:37:14.609Z,26.9
2017-01-14T06:38:15.120Z,26.9
2017-01-14T06:39:15.321Z,26.9
2017-01-14T06:40:15.297Z,26.9
2017-01-14T06:41:15.511Z,26.9
2017-01-14T06:42:14.418Z,26.9
2017-01-14T06:43:15.458Z,26.9
2017-01-14T06:44:15.530Z,26.9
2017-01-14T06:45:15.074Z,26.9
2017-01-14T06:46:14.658Z,26.9
2017-01-14T06:47:15.697Z,26.9
2017-01-14T06:48:15.686Z,26.9
2017-01-14T06:49:14.753Z,26.9
2017-01-14T06:50:16.513Z,26.9
2017-01-14T06:51:15.774Z,26.9
2017-01-14T06:52:14.836Z,26.9
2017-01-14T06:53:14.918Z,26.9
2017-01-14T06:54:14.997Z,26.9
2017-01-14T06:55:15.131Z,26.9
2017-01-14T06:56:15.100Z,26.9
2017-01-14T06:57:16.179Z,26.9
2017-01-14T06:58:15.076Z,26.9
2017-01-14T06:59:15.118Z,26.9
2017-01-14T07:00:16.151Z,26.9
2017-01-14T07:01:16.333Z,26.9
2017-01-14T07:02:16.278Z,26.9
2017-01-14T07:03:16.411Z,26.9
2017-01-14T07:04:16.423Z,26.9
2017-01-14T07:05:16.015Z,26.9
2017-01-14T07:06:16.454Z,26.9
2017-01-14T07:07:15.520Z,26.9
2017-01-14T07:08:17.206Z,26.9
2017-01-14T07:09:16.599Z,26.9
2017-01-14T07:10:16.652Z,26.9
2017-01-14T07:11:16.757Z,26.9
2017-01-14T07:12:16.804Z,26.9
2017-01-14T07:13:16.897Z,26.9
2017-01-14T07:14:15.910Z,26.9
2017-01-14T07:15:15.962Z,26.9
2017-01-14T07:16:16.938Z,26.9
2017-01-14T07:17:16.020Z,26.9
2017-01-14T07:18:17.053Z,26.9
2017-01-14T07:19:17.018Z,26.9
2017-01-14T07:20:17.054Z,26.9
2017-01-14T07:21:18.316Z,26.9
2017-01-14T07:22:17.142Z,26.9
2017-01-14T07:23:17.280Z,26.9
2017-01-14T07:24:16.068Z,26.9
2017-01-14T07:25:16.161Z,26.9
2017-01-14T07:26:17.506Z,26.9
2017-01-14T07:27:17.272Z,26.9
2017-01-14T07:28:17.439Z,26.9
2017-01-14T07:29:16.352Z,26.9
2017-01-14T07:30:16.502Z,26.9
2017-01-14T07:31:17.312Z,26.9
2017-01-14T07:32:16.665Z,26.9
2017-01-14T07:33:16.731Z,26.9
2017-01-14T07:34:18.455Z,26.9
2017-01-14T07:35:16.746Z,26.9
2017-01-14T07:36:17.894Z,26.9
2017-01-14T07:37:16.946Z,26.9
2017-01-14T07:38:16.992Z,26.9
2017-01-14T07:39:18.094Z,26.9
2017-01-14T07:40:18.288Z,26.9
2017-01-14T07:41:17.185Z,26.9
2017-01-14T07:42:17.301Z,26.9
2017-01-14T07:43:18.430Z,26.9
2017-01-14T07:44:17.287Z,26.9
2017-01-14T07:45:19.593Z,26.9
2017-01-14T07:46:18.543Z,26.9
2017-01-14T07:47:17.512Z,26.9
2017-01-14T07:48:18.667Z,26.9
2017-01-14T07:49:17.691Z,26.9
2017-01-14T07:50:17.689Z,26.9
2017-01-14T07:51:18.896Z,26.9
2017-01-14T07:52:18.858Z,26.9
2017-01-14T07:53:17.860Z,26.9
2017-01-14T07:54:17.964Z,26.9
2017-01-14T07:55:18.041Z,26.9
2017-01-14T07:56:18.942Z,26.9
2017-01-14T07:57:18.189Z,26.9
2017-01-14T07:58:19.440Z,26.9
2017-01-14T07:59:20.003Z,26.8
2017-01-14T08:00:19.437Z,26.9
2017-01-14T08:01:19.493Z,26.8
2017-01-14T08:02:18.401Z,26.8
2017-01-14T08:03:19.512Z,26.8
2017-01-14T08:04:19.524Z,26.8
2017-01-14T08:05:20.658Z,26.8
2017-01-14T08:06:19.692Z,26.8
2017-01-14T08:07:18.566Z,26.8
2017-01-14T08:08:19.643Z,26.8
2017-01-14T08:09:19.379Z,26.8
2017-01-14T08:10:18.764Z,26.7
2017-01-14T08:11:19.938Z,26.7
2017-01-14T08:12:20.024Z,26.7
2017-01-14T08:13:20.778Z,26.7
2017-01-14T08:14:19.079Z,26.7
2017-01-14T08:15:19.555Z,26.7
2017-01-14T08:16:19.205Z,26.7
2017-01-14T08:17:20.471Z,26.7
2017-01-14T08:18:20.414Z,26.7
2017-01-14T08:19:19.337Z,26.7
2017-01-14T08:20:19.476Z,26.7
2017-01-14T08:21:19.736Z,26.7
2017-01-14T08:22:19.642Z,26.7
2017-01-14T08:23:19.606Z,26.7
2017-01-14T08:24:19.603Z,26.7
2017-01-14T08:25:20.716Z,26.7
2017-01-14T08:26:21.429Z,26.7
2017-01-14T08:27:20.745Z,26.7
2017-01-14T08:28:20.765Z,26.7
2017-01-14T08:29:19.717Z,26.7
2017-01-14T08:30:21.072Z,26.7
2017-01-14T08:31:19.902Z,26.7
2017-01-14T08:32:19.840Z,26.7
2017-01-14T08:33:21.012Z,26.7
2017-01-14T08:34:20.048Z,26.6
2017-01-14T08:35:20.127Z,26.6
2017-01-14T08:36:21.286Z,26.6
2017-01-14T08:37:20.077Z,26.6
2017-01-14T08:38:20.191Z,26.6
2017-01-14T08:39:21.352Z,26.6
2017-01-14T08:40:20.495Z,26.6
2017-01-14T08:41:20.387Z,26.6
2017-01-14T08:42:21.348Z,26.6
2017-01-14T08:43:20.463Z,26.6
2017-01-14T08:44:20.508Z,26.6
2017-01-14T08:45:20.455Z,26.6
2017-01-14T08:46:21.620Z,26.6
2017-01-14T08:47:21.731Z,26.6
2017-01-14T08:48:20.765Z,26.6
2017-01-14T08:49:22.424Z,26.6
2017-01-14T08:50:20.716Z,26.6
2017-01-14T08:51:21.961Z,26.6
2017-01-14T08:52:20.867Z,26.6
2017-01-14T08:53:22.136Z,26.6
2017-01-14T08:54:22.121Z,26.6
2017-01-14T08:55:21.133Z,26.6
2017-01-14T08:56:22.235Z,26.6
2017-01-14T08:57:22.178Z,26.6
2017-01-14T08:58:21.262Z,26.5
2017-01-14T08:59:21.180Z,26.5
2017-01-14T09:00:22.349Z,26.5
2017-01-14T09:01:21.465Z,26.5
2017-01-14T09:02:21.361Z,26.5
2017-01-14T09:03:21.481Z,26.5
2017-01-14T09:04:22.626Z,26.5
2017-01-14T09:05:21.783Z,26.5
2017-01-14T09:06:21.634Z,26.5
2017-01-14T09:07:21.765Z,26.4
2017-01-14T09:08:22.911Z,26.4
2017-01-14T09:09:22.907Z,26.4
2017-01-14T09:10:21.809Z,26.4
2017-01-14T09:11:22.072Z,26.4
2017-01-14T09:12:23.119Z,26.4
2017-01-14T09:13:22.573Z,26.4
2017-01-14T09:14:22.013Z,26.4
2017-01-14T09:15:22.152Z,26.3
2017-01-14T09:16:23.297Z,26.3
2017-01-14T09:17:23.384Z,26.3
2017-01-14T09:18:23.274Z,26.3
2017-01-14T09:19:23.279Z,26.3
2017-01-14T09:20:23.459Z,26.2
2017-01-14T09:21:22.342Z,26.2
2017-01-14T09:22:23.451Z,26.1
2017-01-14T09:23:23.394Z,26.1
2017-01-14T09:24:22.715Z,26.1
2017-01-14T09:25:24.306Z,26
2017-01-14T09:26:22.549Z,26
2017-01-14T09:27:22.597Z,26
2017-01-14T09:28:22.791Z,25.9
2017-01-14T09:29:23.847Z,25.9
2017-01-14T09:30:22.761Z,25.9
2017-01-14T09:31:22.893Z,25.9
2017-01-14T09:32:22.996Z,25.9
2017-01-14T09:33:23.158Z,25.9
2017-01-14T09:34:24.072Z,25.9
2017-01-14T09:35:24.750Z,25.9
2017-01-14T09:36:24.247Z,25.9
2017-01-14T09:37:23.807Z,25.9
2017-01-14T09:38:23.131Z,25.9
2017-01-14T09:39:24.270Z,25.9
2017-01-14T09:40:24.465Z,25.9
2017-01-14T09:41:24.426Z,25.9
2017-01-14T09:42:24.383Z,26
2017-01-14T09:43:23.434Z,26
2017-01-14T09:44:23.577Z,26
2017-01-14T09:45:24.509Z,26
2017-01-14T09:46:24.859Z,26
2017-01-14T09:47:25.325Z,26
2017-01-14T09:48:23.763Z,26
2017-01-14T09:49:24.704Z,26
2017-01-14T09:50:23.610Z,26
2017-01-14T09:51:24.851Z,26
2017-01-14T09:52:23.719Z,26
2017-01-14T09:53:23.735Z,26
2017-01-14T09:54:23.851Z,26
2017-01-14T09:55:24.854Z,26
2017-01-14T09:56:24.951Z,26
2017-01-14T09:57:25.005Z,26
2017-01-14T09:58:25.645Z,26
2017-01-14T09:59:24.022Z,26
2017-01-14T10:00:24.142Z,26
2017-01-14T10:01:25.268Z,26
2017-01-14T10:02:24.334Z,26
2017-01-14T10:03:25.289Z,25.9
2017-01-14T10:04:26.118Z,25.9
2017-01-14T10:05:25.361Z,25.9
2017-01-14T10:06:24.422Z,25.9
2017-01-14T10:07:24.403Z,25.9
2017-01-14T10:08:25.601Z,25.9
2017-01-14T10:09:25.886Z,25.9
2017-01-14T10:10:24.572Z,25.9
2017-01-14T10:11:25.729Z,25.9
2017-01-14T10:12:25.646Z,25.9
2017-01-14T10:13:24.710Z,25.8
2017-01-14T10:14:24.782Z,25.8
2017-01-14T10:15:25.775Z,25.8
2017-01-14T10:16:25.965Z,25.8
2017-01-14T10:17:24.878Z,25.8
2017-01-14T10:18:26.088Z,25.8
2017-01-14T10:19:26.218Z,25.8
2017-01-14T10:20:26.261Z,25.8
2017-01-14T10:21:26.114Z,25.8
2017-01-14T10:22:26.210Z,25.8
2017-01-14T10:23:25.261Z,25.8
2017-01-14T10:24:26.392Z,25.8
2017-01-14T10:25:26.322Z,25.8
2017-01-14T10:26:26.981Z,25.8
2017-01-14T10:27:25.483Z,25.8
2017-01-14T10:28:26.469Z,25.8
2017-01-14T10:29:25.411Z,25.8
2017-01-14T10:30:25.741Z,25.8
2017-01-14T10:31:25.551Z,25.8
2017-01-14T10:32:26.531Z,25.8
2017-01-14T10:33:25.481Z,25.8
2017-01-14T10:34:25.571Z,25.8
2017-01-14T10:35:26.681Z,25.8
2017-01-14T10:36:27.268Z,25.8
2017-01-14T10:37:26.364Z,25.7
2017-01-14T10:38:25.752Z,25.7
2017-01-14T10:39:26.751Z,25.7
2017-01-14T10:40:26.820Z,25.7
2017-01-14T10:41:28.212Z,25.6
2017-01-14T10:42:27.665Z,25.6
2017-01-14T10:43:26.922Z,25.6
2017-01-14T10:44:26.958Z,25.5
2017-01-14T10:45:27.129Z,25.5
2017-01-14T10:46:26.075Z,25.4
2017-01-14T10:47:26.038Z,25.4
2017-01-14T10:48:26.907Z,25.4
2017-01-14T10:49:27.234Z,25.3
2017-01-14T10:50:27.248Z,25.2
2017-01-14T10:51:27.767Z,25.1
2017-01-14T10:52:27.276Z,25
2017-01-14T10:53:27.252Z,24.9
2017-01-14T10:54:26.970Z,24.9
2017-01-14T10:55:26.294Z,25
2017-01-14T10:56:26.376Z,25
2017-01-14T10:57:27.573Z,25.1
2017-01-14T10:58:27.553Z,25.1
2017-01-14T10:59:26.419Z,25.2
2017-01-14T11:00:27.549Z,25.2
2017-01-14T11:01:26.645Z,25.3
2017-01-14T11:02:26.583Z,25.3
2017-01-14T11:03:27.713Z,25.3
2017-01-14T11:04:26.669Z,25.4
2017-01-14T11:05:26.881Z,25.4
2017-01-14T11:06:26.707Z,25.4
2017-01-14T11:07:26.927Z,25.5
2017-01-14T11:08:28.010Z,25.5
2017-01-14T11:09:27.288Z,25.5
2017-01-14T11:10:28.877Z,25.5
2017-01-14T11:11:33.565Z,25.6
2017-01-14T11:12:27.149Z,25.6
2017-01-14T11:13:27.158Z,25.6
2017-01-14T11:14:27.161Z,25.5
2017-01-14T11:15:28.355Z,25.5
2017-01-14T11:16:28.687Z,25.4
2017-01-14T11:17:27.590Z,25.2
2017-01-14T11:18:28.542Z,25.1
2017-01-14T11:19:29.154Z,25
2017-01-14T11:20:29.218Z,24.8
2017-01-14T11:21:28.674Z,24.8
2017-01-14T11:22:27.541Z,24.7
2017-01-14T11:23:27.659Z,24.5
2017-01-14T11:24:28.728Z,24.5
2017-01-14T11:25:28.735Z,24.4
2017-01-14T11:26:28.790Z,24.4
2017-01-14T11:27:27.808Z,24.2
2017-01-14T11:28:27.834Z,24.1
2017-01-14T11:29:27.962Z,24
2017-01-14T11:30:29.037Z,23.9
2017-01-14T11:31:29.068Z,23.8
2017-01-14T11:32:30.473Z,23.8
2017-01-14T11:33:29.257Z,23.9
2017-01-14T11:34:29.753Z,24
2017-01-14T11:35:28.186Z,24.1
2017-01-14T11:36:29.407Z,24.2
2017-01-14T11:37:29.452Z,24.3
2017-01-14T11:38:28.264Z,24.4
2017-01-14T11:39:28.290Z,24.5
2017-01-14T11:40:29.561Z,24.6
2017-01-14T11:41:30.070Z,24.7
2017-01-14T11:42:28.536Z,24.6
2017-01-14T11:43:29.657Z,24.6
2017-01-14T11:44:29.735Z,24.3
2017-01-14T11:45:28.693Z,24.3
2017-01-14T11:46:30.309Z,24.2
2017-01-14T11:47:30.015Z,24.3
2017-01-14T11:48:30.064Z,24.3
2017-01-14T11:49:28.916Z,24.4
2017-01-14T11:50:28.996Z,24.4
2017-01-14T11:51:30.945Z,24.4
2017-01-14T11:52:29.684Z,24.5
2017-01-14T11:53:30.159Z,24.5
2017-01-14T11:54:31.194Z,24.6
2017-01-14T11:55:30.359Z,24.6
2017-01-14T11:56:29.268Z,24.7
2017-01-14T11:57:29.361Z,24.7
2017-01-14T11:58:30.489Z,24.8
2017-01-14T11:59:30.238Z,24.8
2017-01-14T12:00:29.632Z,24.8
2017-01-14T12:01:29.885Z,24.8
2017-01-14T12:02:30.751Z,24.9
2017-01-14T12:03:30.836Z,24.8
2017-01-14T12:04:31.024Z,24.9
2017-01-14T12:05:29.977Z,24.9
2017-01-14T12:06:29.900Z,24.9
2017-01-14T12:07:30.032Z,25
2017-01-14T12:08:31.170Z,25
2017-01-14T12:09:30.120Z,25
2017-01-14T12:10:30.044Z,25
2017-01-14T12:11:30.824Z,25
2017-01-14T12:12:30.119Z,24.9
2017-01-14T12:13:30.940Z,24.8
2017-01-14T12:14:31.355Z,24.8
2017-01-14T12:15:31.407Z,24.8
2017-01-14T12:16:31.517Z,24.8
2017-01-14T12:17:30.511Z,24.8
2017-01-14T12:18:30.435Z,24.8
2017-01-14T12:19:30.497Z,24.9
2017-01-14T12:20:31.710Z,24.8
2017-01-14T12:21:31.600Z,24.7
2017-01-14T12:22:30.676Z,24.7
2017-01-14T12:23:30.572Z,24.7
2017-01-14T12:24:31.713Z,24.7
2017-01-14T12:25:30.772Z,24.7
2017-01-14T12:26:31.819Z,24.8
2017-01-14T12:27:31.036Z,24.8
2017-01-14T12:28:31.082Z,24.9
2017-01-14T12:29:31.699Z,24.9
2017-01-14T12:30:32.356Z,24.9
2017-01-14T12:31:31.160Z,24.9
2017-01-14T12:32:31.189Z,24.9
2017-01-14T12:33:31.260Z,24.9
2017-01-14T12:34:32.297Z,24.9
2017-01-14T12:35:32.557Z,24.9
2017-01-14T12:36:31.315Z,24.9
2017-01-14T12:37:31.404Z,24.9
2017-01-14T12:38:32.019Z,24.9
2017-01-14T12:39:32.621Z,24.9
2017-01-14T12:40:32.548Z,25
2017-01-14T12:41:31.795Z,25
2017-01-14T12:42:32.640Z,25
2017-01-14T12:43:32.755Z,25
2017-01-14T12:44:32.819Z,25
2017-01-14T12:45:32.925Z,25
2017-01-14T12:46:32.644Z,25
2017-01-14T12:47:35.299Z,25
2017-01-14T12:48:32.196Z,25
2017-01-14T12:49:33.082Z,25
2017-01-14T12:50:33.125Z,24.9
2017-01-14T12:51:32.074Z,24.8
2017-01-14T12:52:32.191Z,24.8
2017-01-14T12:53:33.889Z,24.8
2017-01-14T12:54:33.296Z,24.8
2017-01-14T12:55:32.849Z,24.8
2017-01-14T12:56:33.614Z,24.7
2017-01-14T12:57:33.437Z,24.7
2017-01-14T12:58:32.483Z,24.7
2017-01-14T12:59:32.982Z,24.6
2017-01-14T13:00:32.576Z,24.5
2017-01-14T13:01:33.354Z,24.5
2017-01-14T13:02:32.535Z,24.4
2017-01-14T13:03:33.688Z,24.1
2017-01-14T13:04:32.710Z,23.9
2017-01-14T13:05:33.418Z,23.6
2017-01-14T13:06:33.873Z,23.4
2017-01-14T13:07:32.979Z,23.3
2017-01-14T13:08:32.909Z,23.1
2017-01-14T13:09:32.953Z,23
2017-01-14T13:10:33.156Z,23
2017-01-14T13:11:34.704Z,22.8
2017-01-14T13:12:35.522Z,22.7
2017-01-14T13:13:33.173Z,22.5
2017-01-14T13:14:34.270Z,22.4
2017-01-14T13:15:34.327Z,22.4
2017-01-14T13:16:33.468Z,22.5
2017-01-14T13:17:34.673Z,22.6
2017-01-14T13:18:34.584Z,22.8
2017-01-14T13:19:35.238Z,22.9
2017-01-14T13:20:34.756Z,23.1
2017-01-14T13:21:34.729Z,23.3
2017-01-14T13:22:35.551Z,23.4
2017-01-14T13:23:34.511Z,23.5
2017-01-14T13:24:34.800Z,23.7
2017-01-14T13:25:33.920Z,23.8